Nearby METAR Reports

 

KTTN - Trenton, New Jersey, USA
Distance from station: W 8mi, 12km
Updated: Wed, 10-Aug-2022 3:53pm EDT
Mostly cloudy
Mostly cloudy
 Wind from calm
Wind: Calm
Temperature: 84°F , 29°C
Heat Index: 86°F , 30°C
Dew Point: 66°F , 19°C
Humidity: 55%
Barometer: 29.99 inHg , 1015.6 hPa
Clouds: Mostly cloudy
Visibility: 10 miles , 16 km
Cloud details: Mostly cloudy 4700 ft
Mostly cloudy 5500 ft
2022/08/10 19:53 KTTN 101953Z 00000KT 10SM BKN047 BKN055 29/19 A2999
KWRI - Wrightst/Mcguire, New Jersey, USA
Distance from station: SSE 18mi, 29km
Updated: Wed, 10-Aug-2022 3:56pm EDT
Partly cloudy
Partly cloudy
 Wind from WNW
Wind: WNW 5 mph , 7 km/h
Temperature: 90°F , 32°C
Heat Index: 94°F , 34°C
Dew Point: 68°F , 20°C
Humidity: 49%
Barometer: 29.98 inHg , 1015.2 hPa
Clouds: Partly cloudy
Visibility: 10 miles , 16 km
Cloud details: Partly cloudy 4900 ft
2022/08/10 19:56 KWRI 101956Z AUTO 30004KT 10SM SCT049 32/20 A2998 RMK AO2 SLPNO T03170203 $
KPNE - Philadelphia/Ne, Pennsylvania, USA
Distance from station: SW 22mi, 35km
Updated: Wed, 10-Aug-2022 3:54pm EDT
Mostly cloudy
Mostly cloudy
 Wind from WNW
Wind: WNW 9 mph , 15 km/h
Temperature: 91°F , 33°C
Heat Index: 94°F , 34°C
Dew Point: 66°F , 19°C
Humidity: 44%
Barometer: 29.99 inHg , 1015.6 hPa
Clouds: Mostly cloudy
Visibility: 10 miles , 16 km
Cloud details: Partly cloudy 4700 ft
Mostly cloudy 5500 ft
2022/08/10 19:54 KPNE 101954Z 29008KT 10SM SCT047 BKN055 33/19 A2999 RMK AO2 SLP154 T03280194
 
KDYL - Doylestown, Pennsylvania, USA
Distance from station: W 24mi, 38km
Updated: Wed, 10-Aug-2022 3:54pm EDT
Overcast
Overcast
 Wind from SW
Wind: SW 6 mph , 9 km/h
Temperature: 86°F , 30°C
Heat Index: 88°F , 31°C
Dew Point: 66°F , 19°C
Humidity: 52%
Barometer: 30.00 inHg , 1015.9 hPa
Clouds: Overcast
Visibility: 10 miles , 16 km
Cloud details: Overcast 4500 ft
2022/08/10 19:54 KDYL 101954Z AUTO 22005KT 10SM OVC045 30/19 A3000 RMK AO2 SLP153 T03000189
KSMQ - Somerville, New Jersey, USA
Distance from station: 0 24mi, 39km
Updated: Wed, 10-Aug-2022 3:53pm EDT
Partly cloudy
Partly cloudy
 
Temperature: 90°F , 32°C
Heat Index: 92°F , 33°C
Dew Point: 64°F , 18°C
Humidity: 43%
Barometer: 29.97 inHg , 1014.9 hPa
Clouds: Partly cloudy
Visibility: 10 miles , 16 km
Cloud details: Partly cloudy 5000 ft
2022/08/10 19:53 KSMQ 101953Z AUTO 10SM SCT050 32/18 A2997 RMK AO2 SLP148 T03170178
KVAY - Mount Holly, New Jersey, USA
Distance from station: SSW 24mi, 39km
Updated: Wed, 10-Aug-2022 3:54pm EDT
Mostly cloudy
Mostly cloudy
 Wind from W
Wind: W 9 mph , 15 km/h
Temperature: 93°F , 34°C
Heat Index: 96°F , 36°C
Dew Point: 66°F , 19°C
Humidity: 41%
Barometer: 29.98 inHg , 1015.2 hPa
Clouds: Mostly cloudy
Visibility: 10 miles , 16 km
Cloud details: Partly cloudy 5000 ft
Mostly cloudy 6000 ft
2022/08/10 19:54 KVAY 101954Z AUTO 28008KT 10SM SCT050 BKN060 34/19 A2998 RMK AO2 SLP150 T03390194 $
 
KNEL - Lakehurst Nas, New Jersey, USA
Distance from station: SE 25mi, 40km
Updated: Wed, 10-Aug-2022 4:00pm EDT
Mostly cloudy
Mostly cloudy
 Wind from E
Wind: E 7 mph , 11 km/h
Temperature: 84°F , 29°C
Heat Index: 85°F , 29°C
Dew Point: 64°F , 18°C
Humidity: 51%
Barometer: 29.98 inHg , 1015.2 hPa
Clouds: Mostly cloudy
Visibility: 10 miles , 16 km
Cloud details: Mostly cloudy 6000 ft
2022/08/10 20:00 KNEL 102000Z AUTO 10006KT 10SM BKN060 29/18 A2998 RMK AO2 SLP150 T02890183 PNO $
KBLM - Belmar/Farmdale, New Jersey, USA
Distance from station: ESE 30mi, 48km
Updated: Wed, 10-Aug-2022 3:56pm EDT
Overcast
Overcast
 Wind from E
Wind: E 9 mph , 15 km/h
Temperature: 82°F , 28°C
Heat Index: 85°F , 29°C
Dew Point: 68°F , 20°C
Humidity: 62%
Barometer: 30.01 inHg , 1016.3 hPa
Clouds: Overcast
Visibility: 10 miles , 16 km
Cloud details: Partly cloudy 4700 ft
Overcast 6000 ft
2022/08/10 19:56 KBLM 101956Z AUTO 08008KT 10SM SCT047 OVC060 28/20 A3001 RMK AO2 SLP162 T02780200
KMJX - Toms River, New Jersey, USA
Distance from station: SE 30mi, 49km
Updated: Tue, 03-May-2022 9:08am EDT
NOT Current
Overcast
Overcast
 Wind from ENE
Wind: ENE 9 mph , 15 km/h
Temperature: 55°F , 13°C
Dew Point: 50°F , 10°C
Humidity: 82%
Barometer: 30.18 inHg , 1022 hPa
Clouds: Overcast
Visibility: 10 miles , 16 km
Cloud details: Overcast 1100 ft
2022/05/03 13:08 KMJX 031308Z AUTO 06008KT 10SM OVC011 13/10 A3018 RMK AO2
 
KLOM - Philly Wings F, Pennsylvania, USA
Distance from station: WSW 33mi, 52km
Updated: Wed, 10-Aug-2022 4:15pm EDT
Overcast
Overcast
 Wind from WNW
Wind: WNW 3 mph , 6 km/h
Temperature: 84°F , 29°C
Heat Index: 88°F , 31°C
Dew Point: 70°F , 21°C
Humidity: 62%
Barometer: 30.01 inHg , 1016.3 hPa
Clouds: Overcast
Visibility: 10 miles , 16 km
Cloud details: Overcast 5000 ft
2022/08/10 20:15 KLOM 102015Z AUTO 30003KT 10SM OVC050 29/21 A3001 RMK AO2 T02900205
KCKZ - Perkasie, Pennsylvania, USA
Distance from station: WNW 33mi, 53km
Updated: Wed, 10-Aug-2022 4:35pm EDT
Overcast
Overcast
 Wind from W
Wind: W 3 mph , 6 km/h
Temperature: 82°F , 28°C
Heat Index: 84°F , 29°C
Dew Point: 66°F , 19°C
Humidity: 58%
Barometer: 30.02 inHg , 1016.6 hPa
Clouds: Overcast
Visibility: 10 miles , 16 km
Cloud details: Overcast 4800 ft
2022/08/10 20:35 KCKZ 102035Z AUTO 26003KT 10SM OVC048 28/19 A3002 RMK AO2
KLDJ - Linden, New Jersey, USA
Distance from station: NE 33mi, 53km
Updated: Wed, 10-Aug-2022 4:15pm EDT
Mostly cloudy
Mostly cloudy
 Wind from calm
Wind: Calm
Temperature: 86°F , 30°C
Heat Index: 86°F , 30°C
Dew Point: 61°F , 16°C
Humidity: 43%
Barometer: 29.98 inHg , 1015.2 hPa
Clouds: Mostly cloudy
Visibility: 10 miles , 16 km
Cloud details: Partly cloudy 5000 ft
Mostly cloudy 6500 ft
2022/08/10 20:15 KLDJ 102015Z AUTO 00000KT 10SM SCT050 BKN065 30/16 A2998 RMK AO2 T03020164
 
KMMU - Morristown Muni, New Jersey, USA
Distance from station: NNE 38mi, 62km
Updated: Wed, 10-Aug-2022 3:53pm EDT
Mostly cloudy
Mostly cloudy
 Wind from W
Wind: W 8 mph , 13 km/h, Gust: 15 mph , 24 km/h
Temperature: 88°F , 31°C
Heat Index: 90°F , 32°C
Dew Point: 64°F , 18°C
Humidity: 46%
Barometer: 30.00 inHg , 1015.9 hPa
Clouds: Mostly cloudy
Visibility: 10 miles , 16 km
Cloud details: Mostly cloudy 4900 ft
2022/08/10 19:53 KMMU 101953Z 260007G13KT 10SM BKN049 31/18 A3000
KEWR - Newark, New Jersey, USA
Distance from station: NE 39mi, 63km
Updated: Wed, 10-Aug-2022 3:51pm EDT
Mostly cloudy
Mostly cloudy
 Wind from SW
Wind: SW 5 mph , 7 km/h
Temperature: 88°F , 31°C
Heat Index: 90°F , 32°C
Dew Point: 64°F , 18°C
Humidity: 46%
Barometer: 29.99 inHg , 1015.6 hPa
Clouds: Mostly cloudy
Visibility: 10 miles , 16 km
Cloud details: Few Clouds 5000 ft
Mostly cloudy 6000 ft
2022/08/10 19:51 KEWR 101951Z 22004KT 10SM FEW050 BKN060 31/18 A2999 RMK AO2 SLP153 T03060178
KUKT - Quakertown Arp, Pennsylvania, USA
Distance from station: WNW 39mi, 63km
Updated: Wed, 10-Aug-2022 4:35pm EDT
Mostly cloudy
Mostly cloudy
 Wind from varies
Wind: varies 5 mph , 7 km/h
Temperature: 84°F , 29°C
Heat Index: 87°F , 31°C
Dew Point: 68°F , 20°C
Humidity: 58%
Barometer: 30.01 inHg , 1016.3 hPa
Clouds: Mostly cloudy
Visibility: 10 miles , 16 km
Cloud details: Mostly cloudy 4600 ft
2022/08/10 20:35 KUKT 102035Z AUTO VRB04KT 10SM BKN046 29/20 A3001 RMK A01
 
KPHL - Philadelphia, Pennsylvania, USA
Distance from station: SW 40mi, 65km
Updated: Wed, 10-Aug-2022 3:54pm EDT
Partly cloudy
Partly cloudy
 Wind from W
Wind: W 8 mph , 13 km/h
Temperature: 91°F , 33°C
Heat Index: 96°F , 36°C
Dew Point: 70°F , 21°C
Humidity: 49%
Barometer: 29.98 inHg , 1015.2 hPa
Clouds: Partly cloudy
Visibility: 10 miles , 16 km
Cloud details: Partly cloudy 4500 ft
Partly cloudy 6000 ft
2022/08/10 19:54 KPHL 101954Z 28007KT 10SM SCT045 SCT060 33/21 A2998 RMK AO2 SLP152 T03280206 $
KJRB - Manhattan/Dwntwn, New York, USA
Distance from station: NE 46mi, 74km
Updated: Wed, 10-Aug-2022 3:56pm EDT
Mostly cloudy
Mostly cloudy
 Wind from WSW
Wind: WSW 6 mph , 9 km/h
Temperature: 86°F , 30°C
Heat Index: 89°F , 32°C
Dew Point: 68°F , 20°C
Humidity: 55%
Barometer: 30.00 inHg , 1015.9 hPa
Clouds: Mostly cloudy
Visibility: 10 miles , 16 km
Cloud details: Mostly cloudy 5500 ft
2022/08/10 19:56 KJRB 101956Z AUTO 24005KT 10SM BKN055 30/20 A3000 RMK AO2 PK WND 28033/1857 SLP158 T03000200
KPTW - Pottstown, Pennsylvania, USA
Distance from station: W 46mi, 74km
Updated: Wed, 10-Aug-2022 3:54pm EDT
Overcast
Overcast
 Wind from varies
Wind: varies 3 mph , 6 km/h
Temperature: 81°F , 27°C
Heat Index: 83°F , 28°C
Dew Point: 66°F , 19°C
Humidity: 62%
Barometer: 30.03 inHg , 1016.9 hPa
Clouds: Overcast
Visibility: 10 miles , 16 km
Cloud details: Overcast 4300 ft
2022/08/10 19:54 KPTW 101954Z AUTO VRB03KT 10SM OVC043 27/19 A3003 RMK AO2 SLP164 T02720189
 
KCDW - Caldwell, New Jersey, USA
Distance from station: NNE 47mi, 76km
Updated: Wed, 10-Aug-2022 3:53pm EDT
Few Clouds
Few Clouds
 Wind from calm
Wind: Calm
Temperature: 86°F , 30°C
Heat Index: 87°F , 31°C
Dew Point: 63°F , 17°C
Humidity: 46%
Barometer: 30.00 inHg , 1015.9 hPa
Clouds: Few Clouds
Visibility: 10 miles , 16 km
Cloud details: Few Clouds 5500 ft
2022/08/10 19:53 KCDW 101953Z AUTO 00000KT 10SM FEW055 30/17 A3000 RMK AO2 SLP161 T03000167
KXLL - Allentown Queen, Pennsylvania, USA
Distance from station: WNW 47mi, 76km
Updated: Wed, 10-Aug-2022 4:35pm EDT
Overcast
Overcast
 Wind from SSW
Wind: SSW 8 mph , 13 km/h
Temperature: 84°F , 29°C
Heat Index: 86°F , 30°C
Dew Point: 66°F , 19°C
Humidity: 55%
Barometer: 30.01 inHg , 1016.3 hPa
Clouds: Overcast
Visibility: 10 miles , 16 km
Cloud details: Overcast 4600 ft
2022/08/10 20:35 KXLL 102035Z AUTO 21007KT 10SM OVC046 29/19 A3001 RMK AO2